createdAt,value
2023-04-26T00:00:36.590Z,72.79
2023-04-26T00:03:08.964Z,72.47
2023-04-26T00:05:42.323Z,72.83
2023-04-26T00:08:15.549Z,73.12
2023-04-26T00:10:47.851Z,73.44
2023-04-26T00:13:20.061Z,73.53
2023-04-26T00:15:52.223Z,74.23
2023-04-26T00:18:24.284Z,73.86
2023-04-26T00:20:56.610Z,74.32
2023-04-26T00:23:28.949Z,74.52
2023-04-26T00:26:01.085Z,75.13
2023-04-26T00:28:33.251Z,74.77
2023-04-26T00:31:05.453Z,74.95
2023-04-26T00:33:37.647Z,75.20
2023-04-26T00:36:10.166Z,76.27
2023-04-26T00:38:42.327Z,76.36
2023-04-26T00:41:14.909Z,76.36
2023-04-26T00:43:47.055Z,76.39
2023-04-26T00:46:19.112Z,76.96
2023-04-26T00:48:52.228Z,76.75
2023-04-26T00:51:24.762Z,77.33
2023-04-26T00:53:57.441Z,76.98
2023-04-26T00:56:30.702Z,76.43
2023-04-26T00:59:03.756Z,76.40
2023-04-26T01:01:36.657Z,76.94
2023-04-26T01:04:09.088Z,77.16
2023-04-26T01:06:42.131Z,76.91
2023-04-26T01:09:16.280Z,77.08
2023-04-26T01:11:49.275Z,77.23
2023-04-26T01:14:22.106Z,77.21
2023-04-26T01:16:54.146Z,77.27
2023-04-26T01:19:26.346Z,77.08
2023-04-26T01:21:58.609Z,76.73
2023-04-26T01:24:30.791Z,76.61
2023-04-26T01:27:04.261Z,76.73
2023-04-26T01:29:36.846Z,77.07
2023-04-26T01:32:08.937Z,77.23
2023-04-26T01:37:23.331Z,76.83
2023-04-26T01:39:55.959Z,77.01
2023-04-26T01:42:28.009Z,77.16
2023-04-26T01:45:00.131Z,76.87
2023-04-26T01:47:34.547Z,76.90
2023-04-26T01:50:07.580Z,76.97
2023-04-26T01:52:39.888Z,76.97
2023-04-26T01:55:12.107Z,76.83
2023-04-26T01:57:44.222Z,77.29
2023-04-26T02:00:17.259Z,77.66
2023-04-26T02:02:51.637Z,78.01
2023-04-26T02:05:24.573Z,78.67
2023-04-26T02:07:56.801Z,78.25
2023-04-26T02:10:28.887Z,78.46
2023-04-26T02:13:01.158Z,78.71
2023-04-26T02:15:33.532Z,78.62
2023-04-26T02:18:06.593Z,78.90
2023-04-26T02:20:43.378Z,79.01
2023-04-26T02:23:15.741Z,79.00
2023-04-26T02:25:49.711Z,79.60
2023-04-26T02:28:22.050Z,80.05
2023-04-26T02:30:54.445Z,80.07
2023-04-26T02:33:26.655Z,80.40
2023-04-26T02:35:58.809Z,80.50
2023-04-26T02:38:30.990Z,80.89
2023-04-26T02:41:04.082Z,81.04
2023-04-26T02:43:37.344Z,81.37
2023-04-26T02:46:10.001Z,81.75
2023-04-26T02:48:42.225Z,82.27
2023-04-26T02:51:14.717Z,82.15
2023-04-26T02:53:46.954Z,82.10
2023-04-26T02:56:19.687Z,82.37
2023-04-26T02:58:52.004Z,82.25
2023-04-26T03:01:24.447Z,82.18
2023-04-26T03:03:58.698Z,82.77
2023-04-26T03:06:30.424Z,82.81
2023-04-26T03:09:05.645Z,82.50
2023-04-26T03:11:38.000Z,82.68
2023-04-26T03:14:10.141Z,82.62
2023-04-26T03:16:46.118Z,82.74
2023-04-26T03:19:18.818Z,82.93
2023-04-26T03:21:51.204Z,83.28
2023-04-26T03:24:23.858Z,83.41
2023-04-26T03:26:56.001Z,83.69
2023-04-26T03:29:28.277Z,84.06
2023-04-26T03:32:00.680Z,83.76
2023-04-26T03:34:32.911Z,84.20
2023-04-26T03:37:05.331Z,84.04
2023-04-26T03:39:37.450Z,84.28
2023-04-26T03:42:10.478Z,84.28
2023-04-26T03:44:43.091Z,84.25
2023-04-26T03:47:17.035Z,84.69
2023-04-26T03:49:49.152Z,84.60
2023-04-26T03:52:21.412Z,85.08
2023-04-26T03:54:53.655Z,85.66
2023-04-26T03:57:25.825Z,85.38
2023-04-26T03:59:58.354Z,85.09
2023-04-26T04:02:32.037Z,85.14
2023-04-26T04:05:04.144Z,84.73
2023-04-26T04:07:36.494Z,84.78
2023-04-26T04:10:10.747Z,84.74
2023-04-26T04:12:44.720Z,85.21
2023-04-26T04:15:17.486Z,85.09
2023-04-26T04:17:52.086Z,85.23
2023-04-26T04:20:25.368Z,85.49
2023-04-26T04:22:59.270Z,85.85
2023-04-26T04:25:31.641Z,85.41
2023-04-26T04:28:05.655Z,85.28
2023-04-26T04:30:38.652Z,85.66
2023-04-26T04:33:10.948Z,85.42
2023-04-26T04:35:45.086Z,85.50
2023-04-26T04:38:17.572Z,85.80
2023-04-26T04:40:50.584Z,85.21
2023-04-26T04:43:23.624Z,85.94
2023-04-26T04:45:56.316Z,85.31
2023-04-26T04:48:29.084Z,85.75
2023-04-26T04:51:02.792Z,86.08
2023-04-26T04:53:35.268Z,86.01
2023-04-26T04:56:07.927Z,85.71
2023-04-26T04:58:40.908Z,85.36
2023-04-26T05:01:13.755Z,85.11
2023-04-26T05:03:50.875Z,85.10
2023-04-26T05:06:24.497Z,85.81
2023-04-26T05:09:00.133Z,84.92
2023-04-26T05:11:33.214Z,85.30
2023-04-26T05:14:06.350Z,84.80
2023-04-26T05:16:38.818Z,83.94
2023-04-26T05:19:12.005Z,83.89
2023-04-26T05:21:44.274Z,83.27
2023-04-26T05:24:16.485Z,83.67
2023-04-26T05:26:49.155Z,83.26
2023-04-26T05:29:39.650Z,83.52
2023-04-26T05:32:13.948Z,82.78
2023-04-26T05:34:47.887Z,82.19
2023-04-26T05:37:21.632Z,82.67
2023-04-26T05:39:54.271Z,82.48
2023-04-26T05:42:26.402Z,82.09
2023-04-26T05:45:01.821Z,82.96
2023-04-26T05:47:34.820Z,82.22
2023-04-26T05:50:08.500Z,82.28
2023-04-26T05:52:40.737Z,81.55
2023-04-26T05:55:13.777Z,81.37
2023-04-26T05:57:46.119Z,81.62
2023-04-26T06:00:20.363Z,81.50
2023-04-26T06:02:53.151Z,81.77
2023-04-26T06:05:26.002Z,81.96
2023-04-26T06:07:58.690Z,81.00
2023-04-26T06:10:31.073Z,81.01
2023-04-26T06:13:04.208Z,80.67
2023-04-26T06:15:38.428Z,80.69
2023-04-26T06:18:10.641Z,81.40
2023-04-26T06:20:43.269Z,81.61
2023-04-26T06:23:18.080Z,81.81
2023-04-26T06:25:51.246Z,81.09
2023-04-26T06:28:23.507Z,82.22
2023-04-26T06:30:55.679Z,81.43
2023-04-26T06:33:28.756Z,81.34
2023-04-26T06:36:01.124Z,81.32
2023-04-26T06:38:33.486Z,80.89
2023-04-26T06:41:06.279Z,81.28
2023-04-26T06:43:38.928Z,81.48
2023-04-26T06:46:13.200Z,82.20
2023-04-26T06:48:46.667Z,80.74
2023-04-26T06:51:19.216Z,80.83
2023-04-26T06:53:52.988Z,81.27
2023-04-26T06:56:25.926Z,81.07
2023-04-26T06:59:03.672Z,80.77
2023-04-26T07:01:36.847Z,80.32
2023-04-26T07:04:11.263Z,80.00
2023-04-26T07:06:44.191Z,80.48
2023-04-26T07:09:16.322Z,81.99
2023-04-26T07:11:48.659Z,81.48
2023-04-26T07:14:20.797Z,81.10
2023-04-26T07:16:52.961Z,81.03
2023-04-26T07:19:25.508Z,80.53
2023-04-26T07:21:57.874Z,80.67
2023-04-26T07:24:30.252Z,80.09
2023-04-26T07:27:02.483Z,80.24
2023-04-26T07:29:34.654Z,80.40
2023-04-26T07:32:07.387Z,81.07
2023-04-26T07:34:39.792Z,79.86
2023-04-26T07:37:12.362Z,80.31
2023-04-26T07:39:44.774Z,80.01
2023-04-26T07:42:17.170Z,79.95
2023-04-26T07:44:50.913Z,79.50
2023-04-26T07:47:23.186Z,78.76
2023-04-26T07:49:56.213Z,78.93
2023-04-26T07:52:28.400Z,78.30
2023-04-26T07:55:00.991Z,78.15
2023-04-26T07:57:34.011Z,78.07
2023-04-26T08:00:09.164Z,77.12
2023-04-26T08:02:45.190Z,77.14
2023-04-26T08:05:18.217Z,77.89
2023-04-26T08:07:50.658Z,76.17
2023-04-26T08:10:22.774Z,76.55
2023-04-26T08:12:57.421Z,75.41
2023-04-26T08:15:30.817Z,75.09
2023-04-26T08:18:03.318Z,75.95
2023-04-26T08:20:35.456Z,76.42
2023-04-26T08:23:07.611Z,76.28
2023-04-26T08:25:39.664Z,75.27
2023-04-26T08:28:13.400Z,75.27
2023-04-26T08:30:45.848Z,74.59
2023-04-26T08:33:19.956Z,73.93
2023-04-26T08:35:52.617Z,74.23
2023-04-26T08:38:24.998Z,77.16
2023-04-26T08:40:59.663Z,74.77
2023-04-26T08:43:32.367Z,74.77
2023-04-26T08:46:07.526Z,73.65
2023-04-26T08:48:39.990Z,73.65
2023-04-26T08:51:14.133Z,76.72
2023-04-26T08:53:46.578Z,76.72
2023-04-26T08:56:19.321Z,74.37
2023-04-26T08:58:52.309Z,75.50
2023-04-26T09:01:26.463Z,74.18
2023-04-26T09:04:00.534Z,74.18
2023-04-26T09:06:34.861Z,76.22
2023-04-26T09:09:10.030Z,74.94
2023-04-26T09:12:03.332Z,73.21
2023-04-26T09:14:36.122Z,72.90
2023-04-26T09:17:09.706Z,73.18
2023-04-26T09:19:45.706Z,73.40
2023-04-26T09:22:31.971Z,73.10
2023-04-26T09:25:07.588Z,74.17
2023-04-26T09:27:44.444Z,74.85
2023-04-26T09:30:20.848Z,73.43
2023-04-26T09:33:04.960Z,73.34
2023-04-26T09:35:42.253Z,73.34
2023-04-26T09:38:16.368Z,74.40
2023-04-26T09:40:50.493Z,74.58
2023-04-26T09:43:23.366Z,72.58
2023-04-26T09:45:57.416Z,72.91
2023-04-26T09:48:32.264Z,72.91
2023-04-26T09:51:12.511Z,73.83
2023-04-26T09:53:50.186Z,74.62
2023-04-26T09:56:22.540Z,75.49
2023-04-26T09:59:01.423Z,75.37
2023-04-26T10:01:35.190Z,74.74
2023-04-26T10:04:08.856Z,74.74
2023-04-26T10:06:41.302Z,75.37
2023-04-26T10:09:14.142Z,74.61
2023-04-26T10:11:46.190Z,75.47
2023-04-26T10:14:18.173Z,75.47
2023-04-26T10:16:51.015Z,74.05
2023-04-26T10:19:24.597Z,73.03
2023-04-26T10:21:59.644Z,73.03
2023-04-26T10:24:31.796Z,73.29
2023-04-26T10:27:05.492Z,72.34
2023-04-26T10:29:57.107Z,71.48
2023-04-26T10:32:29.257Z,73.35
2023-04-26T10:35:15.079Z,73.27
2023-04-26T10:38:05.987Z,71.92
2023-04-26T10:40:42.083Z,70.39
2023-04-26T10:43:18.328Z,69.31
2023-04-26T10:45:51.462Z,70.11
2023-04-26T10:48:25.918Z,73.41
2023-04-26T10:51:08.284Z,73.41
2023-04-26T10:53:52.518Z,73.22
2023-04-26T10:56:31.038Z,72.02
2023-04-26T10:59:33.214Z,69.42
2023-04-26T11:01:48.664Z,70.16
2023-04-26T11:04:21.469Z,69.76
2023-04-26T11:06:54.788Z,71.16
2023-04-26T11:09:41.547Z,68.45
2023-04-26T11:12:16.647Z,66.02
2023-04-26T11:14:49.682Z,65.02
2023-04-26T11:17:22.400Z,62.70
2023-04-26T11:19:56.680Z,61.13
2023-04-26T11:22:30.440Z,62.21
2023-04-26T11:25:02.913Z,59.66
2023-04-26T11:27:34.823Z,54.71
2023-04-26T11:30:08.436Z,54.65
2023-04-26T11:32:40.975Z,51.51
2023-04-26T11:35:13.764Z,49.99
2023-04-26T11:37:49.103Z,49.16
2023-04-26T11:40:21.948Z,50.30
2023-04-26T11:42:55.010Z,49.03
2023-04-26T11:45:27.323Z,46.90
2023-04-26T11:48:00.068Z,47.59
2023-04-26T11:50:34.921Z,46.98
2023-04-26T11:53:08.868Z,49.45
2023-04-26T11:55:42.227Z,49.20
2023-04-26T11:58:15.793Z,49.11
2023-04-26T12:01:05.764Z,48.69
2023-04-26T12:03:38.451Z,49.26
2023-04-26T12:06:11.172Z,50.33
2023-04-26T12:08:43.416Z,52.00
2023-04-26T12:11:18.164Z,52.55
2023-04-26T12:13:51.048Z,53.70
2023-04-26T12:16:26.662Z,55.42
2023-04-26T12:18:58.874Z,55.99
2023-04-26T12:21:31.231Z,54.20
2023-04-26T12:24:03.594Z,53.33
2023-04-26T12:26:45.938Z,54.34
2023-04-26T12:29:18.411Z,54.95
2023-04-26T12:31:50.920Z,53.58
2023-04-26T12:34:23.201Z,52.34
2023-04-26T12:36:55.980Z,51.64
2023-04-26T12:39:28.580Z,46.67
2023-04-26T12:42:00.688Z,44.07
2023-04-26T12:44:33.051Z,39.16
2023-04-26T12:47:05.528Z,32.56
2023-04-26T12:49:37.975Z,28.31
2023-04-26T12:52:10.393Z,27.56
2023-04-26T12:54:42.953Z,27.21
2023-04-26T12:57:15.796Z,25.87
2023-04-26T12:59:48.484Z,26.50
2023-04-26T13:02:20.572Z,26.75
2023-04-26T13:04:52.990Z,26.11
2023-04-26T13:07:25.441Z,25.71
2023-04-26T13:09:58.164Z,23.36
2023-04-26T13:12:30.474Z,23.21
2023-04-26T13:15:04.122Z,21.63
2023-04-26T13:17:38.591Z,20.82
2023-04-26T13:20:11.518Z,20.13
2023-04-26T13:22:43.904Z,18.89
2023-04-26T13:25:17.508Z,17.73
2023-04-26T13:27:49.586Z,17.74
2023-04-26T13:30:21.935Z,17.53
2023-04-26T13:32:54.106Z,17.86
2023-04-26T13:35:26.566Z,17.00
2023-04-26T13:37:58.839Z,15.80
2023-04-26T13:40:31.294Z,15.10
2023-04-26T13:43:04.184Z,14.89
2023-04-26T13:45:36.403Z,15.47
2023-04-26T13:48:08.728Z,15.65
2023-04-26T13:50:41.030Z,16.43
2023-04-26T13:53:13.421Z,17.17
2023-04-26T13:55:45.825Z,17.01
2023-04-26T13:58:18.560Z,17.35
2023-04-26T14:00:51.047Z,17.07
2023-04-26T14:03:23.494Z,17.07
2023-04-26T14:05:56.687Z,17.21
2023-04-26T14:08:29.015Z,17.09
2023-04-26T14:11:01.288Z,16.77
2023-04-26T14:13:33.728Z,16.82
2023-04-26T14:16:06.714Z,16.31
2023-04-26T14:18:40.982Z,16.31
2023-04-26T14:21:13.751Z,16.29
2023-04-26T14:23:46.235Z,16.35
2023-04-26T14:26:18.476Z,16.03
2023-04-26T14:28:50.815Z,16.55
2023-04-26T14:31:24.661Z,16.55
2023-04-26T14:33:58.917Z,16.71
2023-04-26T14:36:30.602Z,16.73
2023-04-26T14:39:02.499Z,16.56
2023-04-26T14:41:35.196Z,17.70
2023-04-26T14:44:07.440Z,18.39
2023-04-26T14:46:39.685Z,18.76
2023-04-26T14:49:12.076Z,19.04
2023-04-26T14:51:44.241Z,19.91
2023-04-26T14:54:16.610Z,20.12
2023-04-26T14:56:49.648Z,19.88
2023-04-26T14:59:22.678Z,20.81
2023-04-26T15:01:55.006Z,22.18
2023-04-26T15:04:27.422Z,24.22
2023-04-26T15:07:00.118Z,25.78
2023-04-26T15:09:32.676Z,27.22
2023-04-26T15:12:05.125Z,29.28
2023-04-26T15:14:37.394Z,29.99
2023-04-26T15:17:09.631Z,31.69
2023-04-26T15:19:42.113Z,32.79
2023-04-26T15:22:14.381Z,34.37
2023-04-26T15:24:46.635Z,35.19
2023-04-26T15:27:18.751Z,35.33
2023-04-26T15:29:51.137Z,36.79
2023-04-26T15:32:23.474Z,37.48
2023-04-26T15:34:56.079Z,38.17
2023-04-26T15:37:28.254Z,39.14
2023-04-26T15:40:00.456Z,39.29
2023-04-26T15:42:33.535Z,39.56
2023-04-26T15:45:07.053Z,39.75
2023-04-26T15:47:39.821Z,39.82
2023-04-26T15:50:12.699Z,40.26
2023-04-26T15:52:46.537Z,40.52
2023-04-26T15:55:19.510Z,40.27
2023-04-26T15:57:52.397Z,40.47
2023-04-26T16:00:27.039Z,41.23
2023-04-26T16:02:59.509Z,41.21
2023-04-26T16:05:32.258Z,40.89
2023-04-26T16:08:05.793Z,41.36
2023-04-26T16:10:38.556Z,40.95
2023-04-26T16:13:10.766Z,41.90
2023-04-26T16:15:43.587Z,40.80
2023-04-26T16:18:15.662Z,41.02
2023-04-26T16:20:51.246Z,41.40
2023-04-26T16:23:23.760Z,41.14
2023-04-26T16:25:57.228Z,41.44
2023-04-26T16:28:29.329Z,42.33
2023-04-26T16:31:01.664Z,42.66
2023-04-26T16:33:34.435Z,42.96
2023-04-26T16:36:06.928Z,43.13
2023-04-26T16:38:39.146Z,43.26
2023-04-26T16:41:11.460Z,43.53
2023-04-26T16:43:43.703Z,43.50
2023-04-26T16:46:16.056Z,43.17
2023-04-26T16:48:49.992Z,43.91
2023-04-26T16:51:22.632Z,43.84
2023-04-26T16:53:56.354Z,44.03
2023-04-26T16:56:28.497Z,44.64
2023-04-26T16:59:00.569Z,44.91
2023-04-26T17:01:33.092Z,44.39
2023-04-26T17:04:05.672Z,44.57
2023-04-26T17:06:38.115Z,45.07
2023-04-26T17:09:10.183Z,44.70
2023-04-26T17:11:44.316Z,45.50
2023-04-26T17:14:16.708Z,46.17
2023-04-26T17:16:49.418Z,46.17
2023-04-26T17:19:22.002Z,45.72
2023-04-26T17:21:54.976Z,45.79
2023-04-26T17:24:27.256Z,46.33
2023-04-26T17:26:59.369Z,46.54
2023-04-26T17:29:31.654Z,46.70
2023-04-26T17:32:03.833Z,47.47
2023-04-26T17:34:37.721Z,47.47
2023-04-26T17:37:09.790Z,48.17
2023-04-26T17:39:42.226Z,48.37
2023-04-26T17:42:14.419Z,49.00
2023-04-26T17:44:46.733Z,48.47
2023-04-26T17:47:19.079Z,49.05
2023-04-26T17:49:51.156Z,49.28
2023-04-26T17:52:23.271Z,49.84
2023-04-26T17:54:55.868Z,49.84
2023-04-26T17:57:27.966Z,49.65
2023-04-26T18:00:00.375Z,49.89
2023-04-26T18:02:34.199Z,50.75
2023-04-26T18:05:08.690Z,50.50
2023-04-26T18:07:40.971Z,50.95
2023-04-26T18:10:13.133Z,51.13
2023-04-26T18:12:45.322Z,51.60
2023-04-26T18:15:18.777Z,51.60
2023-04-26T18:17:51.666Z,51.42
2023-04-26T18:20:24.079Z,51.36
2023-04-26T18:22:56.095Z,51.62
2023-04-26T18:25:28.292Z,52.15
2023-04-26T18:28:00.989Z,52.06
2023-04-26T18:30:33.167Z,52.66
2023-04-26T18:33:05.527Z,53.62
2023-04-26T18:35:37.809Z,52.89
2023-04-26T18:38:10.241Z,52.89
2023-04-26T18:40:46.221Z,52.98
2023-04-26T18:43:18.583Z,53.38
2023-04-26T18:45:52.693Z,53.62
2023-04-26T18:48:25.007Z,53.41
2023-04-26T18:50:57.501Z,53.87
2023-04-26T18:53:29.653Z,54.08
2023-04-26T18:56:02.213Z,54.01
2023-04-26T18:58:43.309Z,54.87
2023-04-26T19:01:15.624Z,55.03
2023-04-26T19:03:48.955Z,54.35
2023-04-26T19:06:21.685Z,54.29
2023-04-26T19:08:53.991Z,55.18
2023-04-26T19:11:26.320Z,55.12
2023-04-26T19:13:58.401Z,55.05
2023-04-26T19:16:30.952Z,55.92
2023-04-26T19:19:03.399Z,55.72
2023-04-26T19:21:36.705Z,55.67
2023-04-26T19:24:09.066Z,55.25
2023-04-26T19:26:42.238Z,55.12
2023-04-26T19:29:14.742Z,55.14
2023-04-26T19:31:46.942Z,55.04
2023-04-26T19:34:19.023Z,55.46
2023-04-26T19:36:51.345Z,55.40
2023-04-26T19:39:23.849Z,55.27
2023-04-26T19:41:56.410Z,55.35
2023-04-26T19:44:28.364Z,55.54
2023-04-26T19:47:00.807Z,55.57
2023-04-26T19:49:33.291Z,55.64
2023-04-26T19:52:05.572Z,56.03
2023-04-26T19:54:37.602Z,56.21
2023-04-26T19:57:09.651Z,56.72
2023-04-26T19:59:41.652Z,57.14
2023-04-26T20:02:13.879Z,57.21
2023-04-26T20:04:46.126Z,57.45
2023-04-26T20:07:18.170Z,57.49
2023-04-26T20:09:50.232Z,57.65
2023-04-26T20:12:22.297Z,57.96
2023-04-26T20:14:54.370Z,58.10
2023-04-26T20:17:26.445Z,58.32
2023-04-26T20:19:58.652Z,58.23
2023-04-26T20:22:31.075Z,58.49
2023-04-26T20:25:04.252Z,58.70
2023-04-26T20:27:36.189Z,59.18
2023-04-26T20:30:09.464Z,59.40
2023-04-26T20:32:41.835Z,59.38
2023-04-26T20:35:14.206Z,59.85
2023-04-26T20:37:46.458Z,60.19
2023-04-26T20:40:18.868Z,60.48
2023-04-26T20:42:51.474Z,60.87
2023-04-26T20:45:24.000Z,60.71
2023-04-26T20:47:56.172Z,60.97
2023-04-26T20:50:28.372Z,61.27
2023-04-26T20:53:00.682Z,61.77
2023-04-26T20:55:32.844Z,61.79
2023-04-26T20:58:04.825Z,61.88
2023-04-26T21:00:37.143Z,61.52
2023-04-26T21:03:09.499Z,61.91
2023-04-26T21:05:41.920Z,61.65
2023-04-26T21:08:14.139Z,61.74
2023-04-26T21:10:46.652Z,62.15
2023-04-26T21:13:18.978Z,61.90
2023-04-26T21:15:51.296Z,62.42
2023-04-26T21:18:24.034Z,62.37
2023-04-26T21:20:57.023Z,62.29
2023-04-26T21:23:29.105Z,62.15
2023-04-26T21:26:01.096Z,62.16
2023-04-26T21:28:33.407Z,62.40
2023-04-26T21:31:06.640Z,62.47
2023-04-26T21:33:38.842Z,62.73
2023-04-26T21:36:11.356Z,62.27
2023-04-26T21:38:43.348Z,62.39
2023-04-26T21:41:15.423Z,61.77
2023-04-26T21:43:47.418Z,61.70
2023-04-26T21:46:20.065Z,61.60
2023-04-26T21:48:52.296Z,62.02
2023-04-26T21:51:24.659Z,62.12
2023-04-26T21:53:56.658Z,62.44
2023-04-26T21:56:28.754Z,62.26
2023-04-26T21:59:02.601Z,62.64
2023-04-26T22:01:35.003Z,63.07
2023-04-26T22:04:07.404Z,63.07
2023-04-26T22:06:39.602Z,63.37
2023-04-26T22:09:11.979Z,63.18
2023-04-26T22:11:44.359Z,62.96
2023-04-26T22:14:16.560Z,62.72
2023-04-26T22:16:48.917Z,62.94
2023-04-26T22:19:21.206Z,62.85
2023-04-26T22:21:56.064Z,62.71
2023-04-26T22:24:27.142Z,62.92
2023-04-26T22:26:59.477Z,63.30
2023-04-26T22:29:32.071Z,63.48
2023-04-26T22:32:04.114Z,63.52
2023-04-26T22:34:36.690Z,63.70
2023-04-26T22:37:20.292Z,64.01
2023-04-26T22:39:42.663Z,63.83
2023-04-26T22:42:14.853Z,63.47
2023-04-26T22:44:46.986Z,64.11
2023-04-26T22:47:19.205Z,64.15
2023-04-26T22:49:51.404Z,64.00
2023-04-26T22:52:31.565Z,64.12
2023-04-26T22:54:57.314Z,63.76
2023-04-26T22:57:31.290Z,63.47
2023-04-26T23:00:04.673Z,63.40
2023-04-26T23:02:37.136Z,63.24
2023-04-26T23:05:13.094Z,63.77
2023-04-26T23:07:45.701Z,63.74
2023-04-26T23:10:17.915Z,64.05
2023-04-26T23:12:51.076Z,64.27
2023-04-26T23:15:23.834Z,63.74
2023-04-26T23:17:56.282Z,63.62
2023-04-26T23:20:29.042Z,63.45
2023-04-26T23:23:01.034Z,63.41
2023-04-26T23:25:33.314Z,63.59
2023-04-26T23:28:05.237Z,64.00
2023-04-26T23:30:37.342Z,64.01
2023-04-26T23:33:09.874Z,64.26
2023-04-26T23:35:43.009Z,64.38
2023-04-26T23:38:15.353Z,64.80
2023-04-26T23:40:47.796Z,65.10
2023-04-26T23:43:19.850Z,65.37
2023-04-26T23:45:52.067Z,65.37
2023-04-26T23:48:24.307Z,65.65
2023-04-26T23:50:56.402Z,65.65
2023-04-26T23:53:28.702Z,65.59
2023-04-26T23:56:00.870Z,65.21
2023-04-26T23:58:33.051Z,64.97
